createdAt,value
2018-11-20T00:02:45.603Z,29.00
2018-11-20T00:05:54.059Z,23.53
2018-11-20T00:09:02.008Z,23.77
2018-11-20T00:12:10.377Z,33.03
2018-11-20T00:15:18.867Z,34.33
2018-11-20T00:18:27.294Z,29.73
2018-11-20T00:21:33.438Z,23.87
2018-11-20T00:24:41.952Z,32.50
2018-11-20T00:27:50.380Z,29.10
2018-11-20T00:30:58.849Z,27.57
2018-11-20T00:34:07.279Z,28.30
2018-11-20T00:37:15.753Z,21.23
2018-11-20T00:40:24.710Z,28.03
2018-11-20T00:43:27.168Z,33.03
2018-11-20T00:46:35.627Z,30.23
2018-11-20T00:49:44.058Z,27.50
2018-11-20T00:52:52.559Z,26.80
2018-11-20T00:56:29.433Z,32.47
2018-11-20T00:59:27.269Z,29.37
2018-11-20T01:02:35.749Z,26.43
2018-11-20T01:05:44.175Z,27.57
2018-11-20T01:08:52.641Z,29.37
2018-11-20T01:12:01.083Z,35.03
2018-11-20T01:15:09.548Z,33.57
2018-11-20T01:18:17.976Z,35.13
2018-11-20T01:21:26.472Z,31.33
2018-11-20T01:24:34.950Z,28.13
2018-11-20T01:27:43.417Z,22.33
2018-11-20T01:30:51.892Z,24.73
2018-11-20T01:34:00.329Z,30.90
2018-11-20T01:37:08.826Z,26.67
2018-11-20T01:40:17.304Z,30.03
2018-11-20T01:43:25.741Z,27.23
2018-11-20T01:46:34.203Z,29.37
2018-11-20T01:49:42.631Z,24.17
2018-11-20T01:52:51.127Z,26.97
2018-11-20T01:55:59.567Z,30.20
2018-11-20T01:59:08.034Z,32.00
2018-11-20T02:02:16.460Z,28.53
2018-11-20T02:05:26.125Z,31.70
2018-11-20T02:08:34.577Z,22.60
2018-11-20T02:11:43.038Z,29.70
2018-11-20T02:14:42.288Z,32.50
2018-11-20T02:17:52.155Z,37.37
2018-11-20T02:21:00.556Z,23.07
2018-11-20T02:24:06.842Z,34.33
2018-11-20T02:27:15.317Z,28.07
2018-11-20T02:30:24.114Z,27.00
2018-11-20T02:33:32.538Z,22.33
2018-11-20T02:36:41.013Z,32.03
2018-11-20T02:39:49.470Z,26.03
2018-11-20T02:42:58.046Z,31.83
2018-11-20T02:46:06.499Z,27.40
2018-11-20T02:49:14.964Z,34.90
2018-11-20T02:52:23.442Z,31.53
2018-11-20T02:55:31.922Z,28.20
2018-11-20T02:58:29.767Z,30.10
2018-11-20T03:01:38.193Z,27.27
2018-11-20T03:04:46.665Z,32.00
2018-11-20T03:07:55.123Z,34.30
2018-11-20T03:11:03.563Z,27.13
2018-11-20T03:14:12.037Z,36.60
2018-11-20T03:17:19.678Z,31.30
2018-11-20T03:20:28.972Z,26.20
2018-11-20T03:23:37.432Z,31.57
2018-11-20T03:26:45.911Z,21.90
2018-11-20T03:30:35.259Z,29.80
2018-11-20T03:33:43.698Z,33.70
2018-11-20T03:36:51.676Z,33.63
2018-11-20T03:40:00.078Z,37.97
2018-11-20T03:43:08.537Z,29.10
2018-11-20T03:46:17.007Z,22.43
2018-11-20T03:49:25.484Z,38.33
2018-11-20T03:52:33.897Z,33.73
2018-11-20T03:55:42.359Z,41.67
2018-11-20T03:58:50.780Z,36.70
2018-11-20T04:01:59.240Z,22.73
2018-11-20T04:05:07.700Z,31.00
2018-11-20T04:08:16.154Z,34.83
2018-11-20T04:11:24.619Z,31.27
2018-11-20T04:14:33.096Z,23.80
2018-11-20T04:17:41.604Z,34.73
2018-11-20T04:20:50.008Z,32.33
2018-11-20T04:23:58.445Z,33.03
2018-11-20T04:27:06.902Z,30.23
2018-11-20T04:30:53.381Z,32.77
2018-11-20T04:34:01.886Z,30.43
2018-11-20T04:37:29.350Z,30.07
2018-11-20T04:40:37.824Z,29.20
2018-11-20T04:43:46.244Z,23.00
2018-11-20T04:46:43.706Z,33.10
2018-11-20T04:49:52.155Z,34.93
2018-11-20T04:53:00.627Z,24.83
2018-11-20T04:56:09.110Z,25.50
2018-11-20T04:59:17.571Z,32.50
2018-11-20T05:02:26.050Z,30.87
2018-11-20T05:05:34.488Z,32.30
2018-11-20T05:08:42.964Z,30.03
2018-11-20T05:11:49.930Z,33.73
2018-11-20T05:14:58.361Z,25.80
2018-11-20T05:18:06.846Z,30.03
2018-11-20T05:21:15.287Z,33.27
2018-11-20T05:24:23.893Z,21.67
2018-11-20T05:27:32.358Z,27.27
2018-11-20T05:30:30.588Z,27.47
2018-11-20T05:33:39.072Z,26.90
2018-11-20T05:36:47.555Z,27.17
2018-11-20T05:39:56.007Z,25.57
2018-11-20T05:43:04.492Z,21.67
2018-11-20T05:46:02.242Z,28.87
2018-11-20T05:49:10.677Z,31.77
2018-11-20T05:52:19.155Z,31.23
2018-11-20T05:55:27.589Z,31.27
2018-11-20T05:58:36.064Z,26.60
2018-11-20T06:01:44.537Z,34.23
2018-11-20T06:04:52.963Z,25.40
2018-11-20T06:08:01.481Z,32.53
2018-11-20T06:11:09.970Z,25.17
2018-11-20T06:14:18.453Z,27.70
2018-11-20T06:17:26.908Z,26.90
2018-11-20T06:20:30.296Z,29.17
2018-11-20T06:23:38.920Z,25.00
2018-11-20T06:26:47.395Z,29.63
2018-11-20T06:29:54.703Z,26.73
2018-11-20T06:32:56.400Z,30.47
2018-11-20T06:36:04.833Z,30.83
2018-11-20T06:39:13.321Z,22.97
2018-11-20T06:42:21.800Z,28.60
2018-11-20T06:45:30.271Z,29.20
2018-11-20T06:48:57.967Z,25.00
2018-11-20T06:52:06.411Z,28.43
2018-11-20T06:55:15.007Z,28.60
2018-11-20T06:58:15.548Z,30.93
2018-11-20T07:04:24.796Z,29.00
2018-11-20T07:07:33.342Z,24.77
2018-11-20T07:10:41.728Z,27.43
2018-11-20T07:13:51.303Z,25.67
2018-11-20T07:16:58.261Z,24.20
2018-11-20T07:20:06.695Z,27.47
2018-11-20T07:23:15.173Z,28.37
2018-11-20T07:26:23.630Z,17.80
2018-11-20T07:29:32.174Z,22.67
2018-11-20T07:32:40.566Z,25.43
2018-11-20T07:35:49.150Z,18.93
2018-11-20T07:38:57.583Z,20.47
2018-11-20T07:42:06.069Z,25.90
2018-11-20T07:45:10.026Z,30.63
2018-11-20T07:48:18.489Z,30.47
2018-11-20T07:51:26.952Z,29.43
2018-11-20T07:54:35.444Z,26.10
2018-11-20T07:57:43.879Z,22.57
2018-11-20T08:00:52.345Z,30.13
2018-11-20T08:03:59.482Z,27.77
2018-11-20T08:06:58.931Z,28.10
2018-11-20T08:10:07.393Z,27.87
2018-11-20T08:13:15.887Z,31.03
2018-11-20T08:16:24.444Z,26.90
2018-11-20T08:19:32.950Z,30.53
2018-11-20T08:22:41.394Z,30.73
2018-11-20T08:25:49.979Z,33.00
2018-11-20T08:28:58.318Z,29.97
2018-11-20T08:32:06.807Z,24.40
2018-11-20T08:35:15.357Z,24.40
2018-11-20T08:38:23.769Z,28.33
2018-11-20T08:41:32.218Z,25.70
2018-11-20T08:44:40.687Z,27.80
2018-11-20T08:47:49.239Z,27.87
2018-11-20T08:50:57.585Z,31.43
2018-11-20T08:54:06.024Z,27.97
2018-11-20T08:57:14.500Z,29.00
2018-11-20T09:00:22.925Z,25.93
2018-11-20T09:03:31.409Z,27.30
2018-11-20T09:06:39.827Z,31.73
2018-11-20T09:09:48.348Z,30.63
2018-11-20T09:12:56.753Z,29.73
2018-11-20T09:16:05.214Z,27.13
2018-11-20T09:19:13.655Z,22.90
2018-11-20T09:22:22.125Z,37.30
2018-11-20T09:25:30.609Z,33.73
2018-11-20T09:28:39.042Z,25.30
2018-11-20T09:31:47.483Z,23.70
2018-11-20T09:34:56.127Z,34.43
2018-11-20T09:38:04.427Z,30.73
2018-11-20T09:41:12.895Z,24.23
2018-11-20T09:44:36.927Z,21.13
2018-11-20T09:47:45.407Z,28.47
2018-11-20T09:50:54.350Z,31.63
2018-11-20T09:54:02.804Z,33.70
2018-11-20T09:57:11.250Z,22.27
2018-11-20T10:00:19.740Z,23.90
2018-11-20T10:03:18.593Z,29.30
2018-11-20T10:06:27.073Z,25.97
2018-11-20T10:09:54.534Z,25.77
2018-11-20T10:13:03.166Z,26.50
2018-11-20T10:16:12.807Z,36.33
2018-11-20T10:19:21.295Z,26.40
2018-11-20T10:22:29.782Z,25.70
2018-11-20T10:25:38.344Z,28.07
2018-11-20T10:28:46.709Z,30.20
2018-11-20T10:31:56.495Z,26.53
2018-11-20T10:35:04.960Z,27.87
2018-11-20T10:38:13.388Z,22.93
2018-11-20T10:41:24.356Z,32.57
2018-11-20T10:44:32.852Z,23.23
2018-11-20T10:47:41.304Z,23.10
2018-11-20T10:50:49.742Z,21.33
2018-11-20T10:53:58.212Z,23.47
2018-11-20T10:57:06.654Z,30.50
2018-11-20T11:00:00.059Z,26.07
2018-11-20T11:03:08.487Z,18.73
2018-11-20T11:06:17.025Z,25.93
2018-11-20T11:09:30.013Z,30.50
2018-11-20T11:12:38.527Z,21.40
2018-11-20T11:15:46.936Z,17.17
2018-11-20T11:18:55.423Z,23.87
2018-11-20T11:22:03.905Z,22.60
2018-11-20T11:25:12.331Z,24.67
2018-11-20T11:28:20.821Z,28.13
2018-11-20T11:31:23.491Z,23.57
2018-11-20T11:34:23.703Z,21.00
2018-11-20T11:37:32.167Z,27.63
2018-11-20T11:40:40.599Z,23.33
2018-11-20T11:43:49.083Z,30.90
2018-11-20T11:46:57.533Z,28.20
2018-11-20T11:50:05.995Z,23.27
2018-11-20T11:53:14.432Z,22.00
2018-11-20T11:56:22.871Z,28.10
2018-11-20T11:59:31.362Z,17.23
2018-11-20T12:05:47.391Z,21.27
2018-11-20T12:08:55.827Z,25.20
2018-11-20T12:12:04.297Z,27.13
2018-11-20T12:15:12.724Z,29.97
2018-11-20T12:18:21.233Z,27.70
2018-11-20T12:21:29.719Z,25.90
2018-11-20T12:24:38.159Z,23.20
2018-11-20T12:27:46.699Z,30.73
2018-11-20T12:30:55.060Z,23.10
2018-11-20T12:34:02.621Z,25.03
2018-11-20T12:37:11.054Z,29.20
2018-11-20T12:40:19.539Z,26.80
2018-11-20T12:43:27.985Z,34.30
2018-11-20T12:46:28.102Z,31.07
2018-11-20T12:49:36.530Z,24.13
2018-11-20T12:52:44.999Z,24.90
2018-11-20T12:55:54.877Z,26.33
2018-11-20T12:59:01.945Z,24.27
2018-11-20T13:02:10.419Z,25.70
2018-11-20T13:05:18.893Z,31.00
2018-11-20T13:08:30.987Z,28.67
2018-11-20T13:11:35.773Z,29.93
2018-11-20T13:14:44.260Z,28.60
2018-11-20T13:17:52.731Z,28.47
2018-11-20T13:21:01.196Z,28.20
2018-11-20T13:24:11.623Z,34.43
2018-11-20T13:27:18.096Z,27.13
2018-11-20T13:30:28.358Z,21.70
2018-11-20T13:33:36.797Z,21.60
2018-11-20T13:36:45.261Z,27.30
2018-11-20T13:39:48.254Z,30.00
2018-11-20T13:42:59.154Z,29.00
2018-11-20T13:46:07.576Z,23.47
2018-11-20T13:49:16.028Z,24.00
2018-11-20T13:52:17.408Z,31.93
2018-11-20T13:55:27.272Z,29.40
2018-11-20T13:58:34.437Z,33.30
2018-11-20T14:01:42.906Z,18.50
2018-11-20T14:04:51.337Z,27.90
2018-11-20T14:07:59.809Z,31.00
2018-11-20T14:11:00.575Z,32.53
2018-11-20T14:13:59.429Z,28.43
2018-11-20T14:17:07.899Z,26.77
2018-11-20T14:20:16.334Z,30.27
2018-11-20T14:23:25.024Z,30.97
2018-11-20T14:26:33.497Z,28.80
2018-11-20T14:29:35.911Z,29.47
2018-11-20T14:32:44.377Z,30.70
2018-11-20T14:35:52.807Z,41.03
2018-11-20T14:39:01.285Z,31.77
2018-11-20T14:42:09.712Z,27.80
2018-11-20T14:45:18.179Z,30.33
2018-11-20T14:48:26.662Z,37.70
2018-11-20T14:51:35.108Z,32.53
2018-11-20T14:54:43.445Z,30.87
2018-11-20T14:57:51.906Z,32.40
2018-11-20T15:01:00.373Z,33.03
2018-11-20T15:04:08.842Z,27.13
2018-11-20T15:07:17.299Z,33.40
2018-11-20T15:10:26.428Z,36.00
2018-11-20T15:13:34.899Z,31.00
2018-11-20T15:16:43.404Z,30.83
2018-11-20T15:19:51.858Z,35.07
2018-11-20T15:23:00.349Z,33.03
2018-11-20T15:26:08.832Z,28.57
2018-11-20T15:29:17.321Z,29.20
2018-11-20T15:32:25.834Z,30.73
2018-11-20T15:35:34.310Z,19.30
2018-11-20T15:38:31.973Z,20.10
2018-11-20T15:41:40.435Z,21.13
2018-11-20T15:44:48.895Z,23.57
2018-11-20T15:47:57.368Z,24.07
2018-11-20T15:51:05.863Z,27.00
2018-11-20T15:54:14.363Z,25.27
2018-11-20T15:57:22.839Z,25.10
2018-11-20T16:00:31.334Z,18.43
2018-11-20T16:03:39.841Z,27.20
2018-11-20T16:06:48.287Z,27.90
2018-11-20T16:09:56.769Z,25.30
2018-11-20T16:13:05.252Z,31.77
2018-11-20T16:16:05.991Z,26.80
2018-11-20T16:19:14.435Z,26.43
2018-11-20T16:22:22.901Z,28.17
2018-11-20T16:25:31.317Z,25.30
2018-11-20T16:28:39.789Z,31.53
2018-11-20T16:31:39.230Z,27.10
2018-11-20T16:34:47.704Z,31.10
2018-11-20T16:37:56.147Z,36.27
2018-11-20T16:41:04.635Z,28.27
2018-11-20T16:44:13.064Z,37.20
2018-11-20T16:47:21.546Z,32.20
2018-11-20T16:50:29.977Z,30.73
2018-11-20T16:53:38.459Z,32.80
2018-11-20T16:56:46.942Z,34.60
2018-11-20T16:59:43.411Z,21.20
2018-11-20T17:02:48.367Z,29.73
2018-11-20T17:05:46.556Z,27.93
2018-11-20T17:08:55.069Z,25.90
2018-11-20T17:12:03.531Z,31.10
2018-11-20T17:15:12.006Z,27.30
2018-11-20T17:18:20.487Z,29.53
2018-11-20T17:21:22.556Z,27.90
2018-11-20T17:24:31.028Z,31.67
2018-11-20T17:27:39.473Z,31.00
2018-11-20T17:30:45.804Z,27.37
2018-11-20T17:33:54.249Z,33.47
2018-11-20T17:37:02.722Z,25.23
2018-11-20T17:40:11.199Z,26.27
2018-11-20T17:43:19.638Z,27.73
2018-11-20T17:46:28.122Z,33.20
2018-11-20T17:49:36.565Z,34.30
2018-11-20T17:52:45.086Z,33.50
2018-11-20T17:55:53.557Z,31.40
2018-11-20T17:59:02.022Z,34.17
2018-11-20T18:02:10.492Z,40.03
2018-11-20T18:05:18.960Z,39.80
2018-11-20T18:08:27.441Z,29.60
2018-11-20T18:11:35.881Z,32.43
2018-11-20T18:14:44.334Z,33.23
2018-11-20T18:17:52.818Z,33.03
2018-11-20T18:21:01.291Z,39.57
2018-11-20T18:24:09.777Z,32.70
2018-11-20T18:27:19.069Z,30.87
2018-11-20T18:30:28.868Z,27.40
2018-11-20T18:33:37.337Z,37.93
2018-11-20T18:36:37.079Z,38.50
2018-11-20T18:39:45.537Z,38.60
2018-11-20T18:42:54.009Z,30.30
2018-11-20T18:46:02.441Z,32.90
2018-11-20T18:49:11.832Z,27.60
2018-11-20T18:52:19.369Z,36.77
2018-11-20T18:55:27.848Z,32.37
2018-11-20T18:58:36.929Z,37.87
2018-11-20T19:01:44.766Z,27.47
2018-11-20T19:04:42.102Z,38.67
2018-11-20T19:07:50.609Z,40.43
2018-11-20T19:10:59.103Z,30.73
2018-11-20T19:14:07.530Z,36.30
2018-11-20T19:17:16.002Z,41.53
2018-11-20T19:20:24.543Z,34.77
2018-11-20T19:23:33.024Z,28.17
2018-11-20T19:26:41.459Z,34.80
2018-11-20T19:29:49.973Z,29.87
2018-11-20T19:32:58.414Z,42.03
2018-11-20T19:36:07.210Z,35.87
2018-11-20T19:39:15.767Z,41.47
2018-11-20T19:42:24.250Z,31.13
2018-11-20T19:45:32.690Z,30.93
2018-11-20T19:48:41.180Z,50.50
2018-11-20T19:51:49.995Z,39.17
2018-11-20T19:54:58.509Z,31.63
2018-11-20T20:01:06.723Z,38.13
2018-11-20T20:04:15.161Z,33.33
2018-11-20T20:07:23.681Z,44.43
2018-11-20T20:10:32.181Z,33.10
2018-11-20T20:13:40.617Z,37.17
2018-11-20T20:16:49.079Z,43.80
2018-11-20T20:19:57.546Z,32.80
2018-11-20T20:23:06.095Z,43.20
2018-11-20T20:26:15.607Z,33.57
2018-11-20T20:29:24.168Z,38.83
2018-11-20T20:32:32.667Z,44.43
2018-11-20T20:35:41.165Z,31.33
2018-11-20T20:38:49.611Z,39.03
2018-11-20T20:41:58.360Z,46.70
2018-11-20T20:45:06.789Z,55.20
2018-11-20T20:48:15.331Z,34.23
2018-11-20T20:51:23.779Z,33.80
2018-11-20T20:54:32.272Z,46.03
2018-11-20T20:57:40.761Z,46.93
2018-11-20T21:00:50.328Z,50.50
2018-11-20T21:04:00.449Z,34.40
2018-11-20T21:07:08.945Z,46.93
2018-11-20T21:10:17.658Z,43.10
2018-11-20T21:13:26.142Z,37.07
2018-11-20T21:16:35.383Z,44.73
2018-11-20T21:19:43.891Z,48.50
2018-11-20T21:22:52.683Z,45.60
2018-11-20T21:26:01.165Z,37.23
2018-11-20T21:29:09.620Z,47.80
2018-11-20T21:35:20.401Z,46.53
2018-11-20T21:38:29.109Z,49.27
2018-11-20T21:41:34.493Z,41.73
2018-11-20T21:44:42.982Z,43.03
2018-11-20T21:48:10.426Z,38.23
2018-11-20T21:51:18.904Z,45.57
2018-11-20T21:54:26.389Z,44.23
2018-11-20T21:57:34.983Z,42.57
2018-11-20T22:01:04.976Z,45.63
2018-11-20T22:04:32.681Z,32.63
2018-11-20T22:07:41.151Z,46.50
2018-11-20T22:10:49.634Z,41.70
2018-11-20T22:13:58.081Z,37.70
2018-11-20T22:17:06.555Z,40.40
2018-11-20T22:20:14.993Z,41.10
2018-11-20T22:23:23.538Z,49.23
2018-11-20T22:26:20.723Z,49.07
2018-11-20T22:29:29.208Z,39.53
2018-11-20T22:32:37.642Z,42.23
2018-11-20T22:35:46.117Z,46.53
2018-11-20T22:38:54.550Z,43.33
2018-11-20T22:42:00.314Z,46.10
2018-11-20T22:45:03.654Z,48.77
2018-11-20T22:48:12.123Z,46.37
2018-11-20T22:51:20.567Z,51.07
2018-11-20T22:54:29.043Z,43.53
2018-11-20T22:57:25.129Z,46.20
2018-11-20T23:00:33.596Z,43.17
2018-11-20T23:03:42.056Z,34.93
2018-11-20T23:06:48.791Z,46.60
2018-11-20T23:09:38.564Z,50.47
2018-11-20T23:12:28.371Z,46.00
2018-11-20T23:15:18.161Z,46.50
2018-11-20T23:18:07.972Z,42.57
2018-11-20T23:27:11.035Z,43.63
2018-11-20T23:30:00.997Z,38.37
2018-11-20T23:32:50.773Z,38.57
2018-11-20T23:35:40.581Z,48.80
2018-11-20T23:38:30.351Z,42.50
2018-11-20T23:41:20.153Z,45.37
2018-11-20T23:44:09.928Z,44.33
2018-11-20T23:46:59.748Z,40.40
2018-11-20T23:49:49.529Z,44.30
2018-11-20T23:52:39.558Z,39.73
2018-11-20T23:55:29.315Z,43.20
2018-11-20T23:58:19.126Z,43.73
